Weather at Vidin Smurdan Airfield

Public forecast

Using degrees Celsius for public forecast. Weather courtesy of forecast.io.

Closest aviation weather report (METAR) to Vidin Smurdan Airfield

Closest report is Craiova International Airport, 49.5 nm (91.6 km) ENE.

2023/12/03 23:30 (retrieved 39 minutes ago)

LRCV 032330Z 29011KT CAVOK M01/M05 Q1021

Closest aviation forecast (TAF) to Vidin Smurdan Airfield

Forecast is more than 12 hours old.

Closest forecast is Kuk√ęs International Airport, 159.1 nm (294.7 km) SW.

2023/12/03 12:00 Ammendment (retrieved 12 hours ago)

TAF AMD LAKU 031500Z 0312/0412 CNL